createdAt,value
2018-09-24T07:21:30.803Z,499.73
2018-09-24T07:34:43.114Z,445.77
2018-09-24T07:37:17.274Z,405.03
2018-09-24T07:39:51.043Z,346.93
2018-09-24T07:42:25.823Z,351.47
2018-09-24T07:44:59.803Z,393.43
2018-09-24T07:47:33.842Z,376.03
2018-09-24T07:50:07.835Z,405.50
2018-09-24T07:52:42.138Z,362.70
2018-09-24T07:55:16.094Z,436.37
2018-09-24T07:57:50.987Z,457.80
2018-09-24T08:00:24.995Z,404.83
2018-09-24T08:02:59.021Z,348.40
2018-09-24T08:05:34.140Z,420.40
2018-09-24T08:08:09.095Z,406.47
2018-09-24T08:10:43.144Z,456.60
2018-09-24T08:13:17.146Z,405.37
2018-09-24T08:15:50.993Z,414.77
2018-09-24T08:18:24.838Z,355.47
2018-09-24T08:20:58.817Z,381.47
2018-09-24T08:23:32.632Z,331.93
2018-09-24T08:26:07.835Z,384.03
2018-09-24T08:28:42.528Z,416.20
2018-09-24T08:31:17.182Z,438.47
2018-09-24T08:33:50.915Z,461.23
2018-09-24T08:36:25.569Z,488.53
2018-09-24T08:39:00.406Z,527.97
2018-09-24T08:41:36.302Z,514.57
2018-09-24T08:44:10.003Z,521.57
2018-09-24T08:46:45.616Z,452.47
2018-09-24T08:49:19.368Z,457.37
2018-09-24T08:51:54.204Z,453.97
2018-09-24T08:54:28.047Z,495.43
2018-09-24T08:57:01.898Z,546.43
2018-09-24T08:59:35.760Z,551.63
2018-09-24T09:02:10.773Z,522.53
2018-09-24T09:04:44.470Z,513.97
2018-09-24T09:07:18.157Z,428.30
2018-09-24T09:09:52.009Z,440.80
2018-09-24T09:12:25.799Z,461.50
2018-09-24T09:14:59.928Z,430.23
2018-09-24T09:17:33.867Z,460.40
2018-09-24T09:20:08.007Z,455.87
2018-09-24T09:22:42.169Z,441.80
2018-09-24T09:25:16.549Z,455.03
2018-09-24T09:27:51.819Z,541.53
2018-09-24T09:30:26.752Z,593.67
2018-09-24T09:33:01.152Z,602.37
2018-09-24T09:35:36.385Z,598.33
2018-09-24T09:38:10.335Z,604.93
2018-09-24T09:40:44.835Z,562.57
2018-09-24T09:43:19.692Z,351.50
2018-09-24T09:45:54.843Z,401.07
2018-09-24T09:48:29.932Z,572.20
2018-09-24T09:51:03.981Z,583.33
2018-09-24T09:53:38.007Z,591.00
2018-09-24T09:56:11.946Z,468.30
2018-09-24T09:58:46.041Z,310.37
2018-09-24T10:01:20.055Z,399.97
2018-09-24T10:03:54.697Z,333.53
2018-09-24T10:06:28.724Z,394.93
2018-09-24T10:09:05.570Z,500.57
2018-09-24T10:11:40.834Z,425.20
2018-09-24T10:14:14.607Z,437.37
2018-09-24T10:16:48.825Z,455.70
2018-09-24T10:19:22.708Z,483.60
2018-09-24T10:21:56.648Z,468.27
2018-09-24T10:24:30.640Z,509.77
2018-09-24T10:27:04.643Z,474.13
2018-09-24T10:29:38.540Z,447.10
2018-09-24T10:32:12.432Z,422.23
2018-09-24T10:34:46.096Z,522.93
2018-09-24T10:37:20.319Z,408.30
2018-09-24T10:39:54.828Z,515.03
2018-09-24T10:42:30.063Z,406.07
2018-09-24T10:45:04.161Z,511.43
2018-09-24T10:47:37.922Z,377.23
2018-09-24T10:50:11.920Z,483.50
2018-09-24T10:52:45.891Z,451.70
2018-09-24T10:58:02.680Z,414.03
2018-09-24T11:00:36.591Z,486.17
2018-09-24T11:03:10.523Z,471.73
2018-09-24T11:05:44.685Z,618.07
2018-09-24T11:08:18.505Z,351.87
2018-09-24T11:10:52.404Z,353.87
2018-09-24T11:13:26.394Z,555.60
2018-09-24T11:16:00.395Z,655.67
2018-09-24T11:18:34.238Z,633.37
2018-09-24T11:21:08.164Z,658.00
2018-09-24T11:23:41.877Z,582.50
2018-09-24T11:28:49.710Z,580.37
2018-09-24T11:31:23.660Z,535.53
2018-09-24T11:33:57.360Z,550.43
2018-09-24T11:36:31.561Z,604.40
2018-09-24T11:39:05.386Z,666.67
2018-09-24T11:41:39.379Z,674.20
2018-09-24T11:44:13.274Z,457.13
2018-09-24T11:46:47.186Z,504.83
2018-09-24T11:49:20.998Z,517.43
2018-09-24T11:51:54.972Z,524.90
2018-09-24T11:54:29.012Z,646.80
2018-09-24T12:04:12.872Z,570.40
2018-09-24T12:06:52.272Z,518.03
2018-09-24T12:09:26.528Z,405.40
2018-09-24T12:12:00.897Z,333.73
2018-09-24T12:17:15.010Z,469.60
2018-09-24T12:19:48.950Z,518.10
2018-09-24T12:22:23.220Z,466.90
2018-09-24T12:24:57.200Z,488.60
2018-09-24T12:27:31.203Z,529.13
2018-09-24T12:30:05.332Z,464.70
2018-09-24T12:32:39.131Z,640.47
2018-09-24T12:35:14.869Z,492.13
2018-09-24T12:37:51.000Z,459.83
2018-09-24T12:40:25.067Z,531.50
2018-09-24T12:50:08.075Z,496.17
2018-09-24T12:52:41.912Z,636.93
2018-09-24T12:55:16.555Z,647.90
2018-09-24T12:57:50.368Z,652.10
2018-09-24T13:00:24.349Z,524.50
2018-09-24T13:02:58.654Z,429.97
2018-09-24T13:05:32.467Z,416.63
2018-09-24T13:08:06.377Z,401.27
2018-09-24T13:10:40.260Z,395.53
2018-09-24T13:13:14.205Z,388.33
2018-09-24T13:15:47.985Z,388.80
2018-09-24T13:18:21.854Z,524.20
2018-09-24T13:20:55.832Z,393.50
2018-09-24T13:23:29.834Z,421.87
2018-09-24T13:26:03.706Z,631.87
2018-09-24T13:28:37.466Z,513.13
2018-09-24T13:31:11.501Z,555.47
2018-09-24T13:33:45.620Z,575.97
2018-09-24T13:36:19.624Z,590.57
2018-09-24T13:38:53.433Z,572.50
2018-09-24T13:41:27.365Z,623.43
2018-09-24T13:44:00.989Z,569.33
2018-09-24T13:46:34.963Z,494.63
2018-09-24T13:49:08.938Z,410.87
2018-09-24T13:51:42.966Z,504.67
2018-09-24T13:54:16.915Z,577.77
2018-09-24T13:56:52.955Z,486.40
2018-09-24T13:59:28.303Z,396.33
2018-09-24T14:02:03.516Z,388.07
2018-09-24T14:04:37.673Z,359.13
2018-09-24T14:07:11.676Z,389.13
2018-09-24T14:09:45.666Z,390.97
2018-09-24T14:12:19.461Z,379.77
2018-09-24T14:14:53.380Z,389.70
2018-09-24T14:17:27.386Z,435.40
2018-09-24T14:20:06.888Z,455.07
2018-09-24T14:22:41.157Z,470.17
2018-09-24T14:25:15.365Z,468.63
2018-09-24T14:27:49.468Z,467.03
2018-09-24T14:30:23.341Z,427.83
2018-09-24T14:32:57.255Z,399.53
2018-09-24T14:35:31.526Z,386.90
2018-09-24T14:38:05.488Z,387.43
2018-09-24T14:40:39.359Z,433.57
2018-09-24T14:43:14.315Z,460.90
2018-09-24T14:46:44.423Z,537.07
2018-09-24T14:52:58.019Z,629.07
2018-09-24T14:55:32.370Z,647.83
2018-09-24T14:58:06.734Z,645.97
2018-09-24T15:00:41.232Z,613.30
2018-09-24T15:03:15.475Z,624.33
2018-09-24T15:05:49.841Z,665.83
2018-09-24T15:08:24.328Z,645.33
2018-09-24T15:10:58.669Z,720.30
2018-09-24T15:13:33.004Z,749.13
2018-09-24T15:16:07.393Z,682.83
2018-09-24T15:18:44.962Z,780.13
2018-09-24T15:21:20.644Z,787.20
2018-09-24T15:23:54.950Z,750.53
2018-09-24T15:26:29.347Z,666.93
2018-09-24T15:29:07.152Z,633.10
2018-09-24T15:31:41.480Z,458.57
2018-09-24T15:34:16.316Z,346.50
2018-09-24T15:36:50.691Z,318.57
2018-09-24T15:39:25.056Z,372.07
2018-09-24T15:42:00.313Z,455.07
2018-09-24T15:44:34.781Z,533.57
2018-09-24T15:47:09.017Z,587.37
2018-09-24T15:49:43.339Z,618.37
2018-09-24T15:52:17.868Z,650.17
2018-09-24T15:54:52.337Z,664.47
2018-09-24T15:57:26.596Z,686.87
2018-09-24T16:00:04.999Z,660.53
2018-09-24T16:02:40.298Z,677.83
2018-09-24T16:05:14.742Z,700.77
2018-09-24T16:07:49.059Z,733.13
2018-09-24T16:10:23.363Z,651.67
2018-09-24T16:12:57.654Z,757.47
2018-09-24T16:15:31.867Z,738.07
2018-09-24T16:18:06.359Z,749.67
2018-09-24T16:20:40.691Z,738.37
2018-09-24T16:23:15.112Z,733.20
2018-09-24T16:25:49.519Z,704.93
2018-09-24T16:28:24.033Z,710.27
2018-09-24T16:30:58.416Z,700.63
2018-09-24T16:33:32.730Z,688.03
2018-09-24T16:36:06.824Z,670.57
2018-09-24T16:38:40.983Z,670.33
2018-09-24T16:41:15.424Z,661.97
2018-09-24T16:43:49.809Z,648.23
2018-09-24T16:46:24.055Z,606.53
2018-09-24T16:48:58.379Z,582.33
2018-09-24T16:51:32.724Z,606.77
2018-09-24T16:54:07.098Z,560.73
2018-09-24T16:56:41.512Z,538.90
2018-09-24T16:59:15.898Z,481.00
2018-09-24T17:01:50.244Z,421.00
2018-09-24T17:04:24.622Z,464.37
2018-09-24T17:06:58.879Z,406.60
2018-09-24T17:09:33.242Z,372.40
2018-09-24T17:12:07.552Z,375.63
2018-09-24T17:14:41.942Z,337.43
2018-09-24T17:17:16.371Z,337.83
2018-09-24T17:19:50.663Z,307.47
2018-09-24T17:22:25.195Z,297.47
2018-09-24T17:24:59.462Z,295.00
2018-09-24T17:27:33.819Z,284.63
2018-09-24T17:30:08.214Z,287.57
2018-09-24T17:32:42.474Z,313.73
2018-09-24T17:35:16.854Z,330.97
2018-09-24T17:37:51.126Z,379.97
2018-09-24T17:40:25.570Z,386.57
2018-09-24T17:42:59.826Z,364.67
2018-09-24T17:45:34.221Z,365.70
2018-09-24T17:48:08.423Z,379.43
2018-09-24T17:50:42.631Z,373.03
2018-09-24T17:53:16.944Z,384.23
2018-09-24T17:55:51.163Z,389.37
2018-09-24T17:58:25.476Z,389.73
2018-09-24T18:00:59.992Z,406.67
2018-09-24T18:03:34.304Z,412.13
2018-09-24T18:06:08.695Z,434.67
2018-09-24T18:08:43.116Z,470.23
2018-09-24T18:11:17.572Z,467.47
2018-09-24T18:13:51.814Z,495.67
2018-09-24T18:16:25.997Z,510.37
2018-09-24T18:19:00.424Z,482.00
2018-09-24T18:21:35.055Z,451.37
2018-09-24T18:24:09.485Z,477.43
2018-09-24T18:26:43.886Z,539.67
2018-09-24T18:29:18.102Z,505.83
2018-09-24T18:31:52.399Z,447.70
2018-09-24T18:34:26.944Z,368.57
2018-09-24T18:37:02.426Z,359.73
2018-09-24T18:39:36.747Z,356.20
2018-09-24T18:42:11.092Z,353.53
2018-09-24T18:44:45.296Z,293.17
2018-09-24T18:47:19.613Z,376.23
2018-09-24T18:49:53.886Z,379.40
2018-09-24T18:52:28.252Z,488.23
2018-09-24T18:55:02.567Z,515.23
2018-09-24T18:57:36.764Z,568.33
2018-09-24T19:00:11.652Z,582.50
2018-09-24T19:02:45.977Z,598.17
2018-09-24T19:05:20.298Z,590.00
2018-09-24T19:07:54.560Z,612.87
2018-09-24T19:10:28.983Z,658.63
2018-09-24T19:13:03.206Z,641.60
2018-09-24T19:15:37.568Z,633.20
2018-09-24T19:18:11.993Z,616.50
2018-09-24T19:20:46.398Z,601.67
2018-09-24T19:23:20.763Z,559.00
2018-09-24T19:25:55.097Z,594.47
2018-09-24T19:28:29.521Z,611.03
2018-09-24T19:31:03.712Z,626.57
2018-09-24T19:33:38.005Z,615.27
2018-09-24T19:36:15.716Z,625.20
2018-09-24T19:38:50.078Z,622.87
2018-09-24T19:41:24.648Z,641.97
2018-09-24T19:43:58.888Z,647.27
2018-09-24T19:46:33.224Z,616.00
2018-09-24T19:49:07.469Z,619.70
2018-09-24T19:51:41.589Z,615.33
2018-09-24T19:54:16.088Z,623.50
2018-09-24T19:56:50.510Z,631.00
2018-09-24T19:59:24.880Z,635.43
2018-09-24T20:01:59.167Z,702.73
2018-09-24T20:04:33.435Z,747.67
2018-09-24T20:07:07.809Z,739.60
2018-09-24T20:09:42.021Z,782.10
2018-09-24T20:12:16.516Z,786.57
2018-09-24T20:14:50.799Z,779.87
2018-09-24T20:17:25.203Z,776.63
2018-09-24T20:19:59.428Z,766.37
2018-09-24T20:22:33.704Z,763.03
2018-09-24T20:25:08.103Z,788.97
2018-09-24T20:27:42.355Z,763.50
2018-09-24T20:30:16.833Z,793.23
2018-09-24T20:32:51.122Z,728.17
2018-09-24T20:35:25.595Z,725.73
2018-09-24T20:37:59.853Z,736.70
2018-09-24T20:40:34.116Z,734.03
2018-09-24T20:43:08.421Z,717.17
2018-09-24T20:45:42.675Z,743.97
2018-09-24T20:48:17.073Z,743.00
2018-09-24T20:50:51.450Z,674.60
2018-09-24T20:53:25.698Z,689.70
2018-09-24T20:56:00.046Z,707.67
2018-09-24T20:58:34.302Z,746.23
2018-09-24T21:01:08.684Z,777.37
2018-09-24T21:03:42.919Z,770.93
2018-09-24T21:06:17.954Z,787.67
2018-09-24T21:08:52.159Z,795.40
2018-09-24T21:11:26.557Z,788.67
2018-09-24T21:14:02.443Z,791.43
2018-09-24T21:16:37.478Z,791.97
2018-09-24T21:19:12.287Z,778.17
2018-09-24T21:21:47.462Z,786.67
2018-09-24T21:24:21.916Z,776.13
2018-09-24T21:26:57.684Z,808.87
2018-09-24T21:29:33.494Z,768.03
2018-09-24T21:32:07.757Z,779.97
2018-09-24T21:34:42.146Z,792.27
2018-09-24T21:37:16.951Z,788.77
2018-09-24T21:39:52.403Z,789.73
2018-09-24T21:42:26.949Z,809.03
2018-09-24T21:45:06.472Z,781.63
2018-09-24T21:47:41.456Z,782.07
2018-09-24T21:50:16.498Z,782.17
2018-09-24T21:52:51.797Z,759.80
2018-09-24T21:55:27.379Z,748.60
2018-09-24T21:58:06.895Z,748.77
2018-09-24T22:00:41.459Z,762.87
2018-09-24T22:03:15.687Z,786.63
2018-09-24T22:05:50.798Z,759.33
2018-09-24T22:08:25.483Z,741.83
2018-09-24T22:10:59.918Z,759.67
2018-09-24T22:13:34.311Z,752.40
2018-09-24T22:16:08.700Z,748.03
2018-09-24T22:18:42.919Z,742.27
2018-09-24T22:21:17.372Z,715.07
2018-09-24T22:23:51.830Z,662.77
2018-09-24T22:26:26.123Z,692.73
2018-09-24T22:29:00.368Z,680.03
2018-09-24T22:31:35.123Z,673.03
2018-09-24T22:34:09.346Z,672.67
2018-09-24T22:36:43.736Z,703.97
2018-09-24T22:39:18.214Z,696.27
2018-09-24T22:41:52.765Z,676.93
2018-09-24T22:44:27.081Z,704.60
2018-09-24T22:47:01.420Z,693.63
2018-09-24T22:49:35.884Z,704.50
2018-09-24T22:52:10.228Z,711.40
2018-09-24T22:54:44.540Z,680.83
2018-09-24T22:57:18.751Z,700.33
2018-09-24T22:59:53.175Z,675.00
2018-09-24T23:02:28.045Z,678.60
2018-09-24T23:05:02.540Z,670.30
2018-09-24T23:07:36.801Z,650.73
2018-09-24T23:10:11.495Z,663.83
2018-09-24T23:12:46.321Z,669.57
2018-09-24T23:15:20.791Z,640.80
2018-09-24T23:17:55.176Z,620.33
2018-09-24T23:20:29.711Z,637.17
2018-09-24T23:23:04.181Z,652.60
2018-09-24T23:25:38.450Z,665.93
2018-09-24T23:28:12.711Z,677.07
2018-09-24T23:30:47.006Z,650.37
2018-09-24T23:33:21.381Z,644.27
2018-09-24T23:35:55.747Z,673.67
2018-09-24T23:38:30.188Z,649.63
2018-09-24T23:41:04.537Z,653.17
2018-09-24T23:43:38.737Z,582.13
2018-09-24T23:46:13.017Z,596.87
2018-09-24T23:48:47.350Z,614.53
2018-09-24T23:51:21.659Z,609.83
2018-09-24T23:53:56.034Z,545.77
2018-09-24T23:56:30.239Z,515.10
2018-09-24T23:59:04.679Z,520.03
